createdAt,value
2018-07-11T00:00:41.440Z,8.83
2018-07-11T00:03:09.802Z,8.27
2018-07-11T00:05:38.089Z,8.63
2018-07-11T00:08:06.451Z,8.27
2018-07-11T00:10:35.155Z,8.87
2018-07-11T00:13:03.526Z,7.87
2018-07-11T00:15:31.923Z,8.73
2018-07-11T00:18:00.210Z,8.33
2018-07-11T00:20:28.517Z,8.67
2018-07-11T00:22:56.859Z,8.67
2018-07-11T00:25:25.187Z,8.67
2018-07-11T00:27:53.548Z,8.73
2018-07-11T00:30:22.149Z,8.20
2018-07-11T00:32:50.511Z,8.37
2018-07-11T00:35:18.810Z,8.30
2018-07-11T00:37:47.304Z,8.57
2018-07-11T00:40:15.619Z,8.80
2018-07-11T00:42:43.971Z,8.57
2018-07-11T00:45:12.292Z,9.13
2018-07-11T00:47:40.802Z,10.43
2018-07-11T00:50:09.176Z,10.07
2018-07-11T00:52:37.519Z,8.83
2018-07-11T00:55:06.148Z,8.77
2018-07-11T00:57:36.347Z,8.50
2018-07-11T01:00:04.648Z,9.17
2018-07-11T01:02:33.491Z,9.53
2018-07-11T01:05:01.815Z,9.60
2018-07-11T01:07:30.375Z,9.53
2018-07-11T01:09:58.773Z,9.73
2018-07-11T01:12:27.193Z,9.33
2018-07-11T01:14:55.498Z,10.03
2018-07-11T01:17:29.199Z,9.77
2018-07-11T01:19:57.496Z,9.33
2018-07-11T01:22:25.816Z,8.87
2018-07-11T01:24:54.102Z,9.87
2018-07-11T01:27:22.503Z,9.80
2018-07-11T01:29:50.805Z,9.48
2018-07-11T01:32:19.149Z,9.50
2018-07-11T01:34:47.460Z,9.70
2018-07-11T01:37:15.784Z,9.00
2018-07-11T01:39:44.110Z,9.63
2018-07-11T01:42:12.420Z,9.63
2018-07-11T01:44:40.740Z,8.97
2018-07-11T01:47:09.015Z,8.73
2018-07-11T01:49:37.338Z,9.20
2018-07-11T01:52:16.879Z,9.00
2018-07-11T01:54:45.245Z,8.00
2018-07-11T01:57:13.542Z,8.67
2018-07-11T01:59:41.883Z,8.87
2018-07-11T02:02:10.192Z,8.23
2018-07-11T02:04:39.993Z,7.30
2018-07-11T02:07:09.016Z,7.60
2018-07-11T02:09:37.534Z,7.30
2018-07-11T02:12:06.227Z,7.43
2018-07-11T02:14:35.579Z,7.60
2018-07-11T02:17:04.164Z,8.53
2018-07-11T02:19:32.502Z,8.10
2018-07-11T02:22:00.801Z,8.80
2018-07-11T02:24:29.198Z,8.30
2018-07-11T02:26:57.537Z,7.93
2018-07-11T02:29:26.378Z,8.53
2018-07-11T02:31:54.664Z,9.13
2018-07-11T02:34:28.247Z,8.30
2018-07-11T02:36:56.554Z,8.43
2018-07-11T02:39:24.908Z,8.10
2018-07-11T02:41:53.390Z,8.23
2018-07-11T02:44:21.787Z,8.53
2018-07-11T02:46:55.310Z,8.53
2018-07-11T02:49:23.715Z,9.40
2018-07-11T02:51:52.072Z,10.30
2018-07-11T02:54:20.410Z,10.53
2018-07-11T02:56:48.676Z,10.10
2018-07-11T02:59:16.990Z,10.63
2018-07-11T03:01:45.298Z,10.23
2018-07-11T03:04:13.747Z,10.63
2018-07-11T03:06:42.023Z,11.80
2018-07-11T03:09:10.335Z,10.90
2018-07-11T03:11:38.602Z,12.10
2018-07-11T03:14:06.930Z,15.20
2018-07-11T03:16:35.223Z,14.53
2018-07-11T03:19:03.559Z,19.47
2018-07-11T03:21:31.903Z,19.30
2018-07-11T03:24:00.214Z,15.53
2018-07-11T03:26:28.517Z,16.10
2018-07-11T03:28:56.953Z,14.77
2018-07-11T03:31:25.218Z,15.23
2018-07-11T03:33:53.547Z,15.17
2018-07-11T03:36:21.899Z,15.30
2018-07-11T03:38:50.159Z,16.47
2018-07-11T03:41:18.539Z,14.97
2018-07-11T03:43:46.935Z,15.03
2018-07-11T03:46:15.276Z,17.23
2018-07-11T03:48:43.557Z,21.10
2018-07-11T03:51:12.442Z,20.10
2018-07-11T03:53:40.836Z,21.13
2018-07-11T03:56:09.414Z,20.10
2018-07-11T03:58:37.738Z,21.47
2018-07-11T04:01:06.096Z,19.97
2018-07-11T04:03:34.387Z,20.33
2018-07-11T04:06:02.750Z,19.40
2018-07-11T04:08:31.028Z,19.67
2018-07-11T04:10:59.367Z,19.40
2018-07-11T04:13:27.638Z,21.60
2018-07-11T04:15:56.011Z,23.20
2018-07-11T04:18:27.482Z,25.00
2018-07-11T04:20:55.854Z,24.87
2018-07-11T04:23:24.350Z,23.23
2018-07-11T04:25:53.265Z,23.63
2018-07-11T04:28:21.627Z,23.33
2018-07-11T04:30:50.180Z,23.50
2018-07-11T04:33:18.536Z,24.43
2018-07-11T04:35:46.886Z,22.07
2018-07-11T04:38:15.238Z,24.10
2018-07-11T04:40:43.702Z,23.40
2018-07-11T04:43:12.382Z,22.07
2018-07-11T04:45:40.717Z,23.20
2018-07-11T04:48:09.353Z,21.93
2018-07-11T04:50:37.975Z,22.77
2018-07-11T04:53:08.477Z,21.50
2018-07-11T04:55:36.969Z,19.93
2018-07-11T04:58:05.400Z,21.20
2018-07-11T05:00:33.735Z,21.80
2018-07-11T05:03:02.012Z,20.60
2018-07-11T05:05:30.348Z,20.93
2018-07-11T05:07:58.625Z,20.07
2018-07-11T05:10:27.183Z,19.53
2018-07-11T05:12:55.510Z,19.80
2018-07-11T05:15:23.955Z,20.10
2018-07-11T05:17:52.575Z,19.50
2018-07-11T05:20:21.550Z,19.50
2018-07-11T05:22:50.278Z,18.27
2018-07-11T05:25:18.721Z,18.80
2018-07-11T05:27:47.283Z,19.00
2018-07-11T05:30:15.506Z,20.07
2018-07-11T05:32:43.767Z,19.10
2018-07-11T05:35:12.146Z,20.83
2018-07-11T05:37:40.412Z,21.40
2018-07-11T05:40:09.174Z,22.37
2018-07-11T05:42:37.675Z,21.90
2018-07-11T05:45:06.068Z,22.80
2018-07-11T05:47:34.400Z,24.33
2018-07-11T05:50:02.740Z,24.70
2018-07-11T05:52:31.013Z,24.47
2018-07-11T05:54:59.301Z,24.63
2018-07-11T05:57:27.974Z,23.27
2018-07-11T05:59:56.297Z,22.50
2018-07-11T06:02:24.662Z,23.00
2018-07-11T06:04:53.025Z,22.47
2018-07-11T06:07:21.335Z,21.93
2018-07-11T06:09:49.655Z,23.63
2018-07-11T06:12:18.056Z,25.33
2018-07-11T06:14:46.324Z,26.23
2018-07-11T06:17:14.667Z,28.30
2018-07-11T06:19:42.977Z,28.57
2018-07-11T06:22:11.307Z,30.40
2018-07-11T06:24:40.557Z,31.27
2018-07-11T06:27:12.747Z,29.33
2018-07-11T06:29:41.046Z,29.20
2018-07-11T06:32:10.627Z,29.70
2018-07-11T06:34:38.905Z,28.00
2018-07-11T06:37:07.928Z,28.27
2018-07-11T06:39:36.997Z,28.53
2018-07-11T06:42:05.519Z,27.80
2018-07-11T06:44:35.879Z,26.97
2018-07-11T06:47:09.707Z,26.93
2018-07-11T06:49:37.975Z,28.60
2018-07-11T06:52:06.449Z,27.47
2018-07-11T06:54:34.938Z,28.00
2018-07-11T06:57:03.268Z,27.03
2018-07-11T06:59:31.619Z,26.70
2018-07-11T07:01:59.942Z,25.30
2018-07-11T07:04:28.272Z,25.23
2018-07-11T07:06:56.643Z,25.33
2018-07-11T07:09:24.923Z,26.53
2018-07-11T07:11:53.227Z,25.13
2018-07-11T07:14:21.559Z,25.73
2018-07-11T07:16:50.024Z,24.27
2018-07-11T07:19:18.327Z,25.67
2018-07-11T07:21:47.233Z,26.90
2018-07-11T07:24:15.526Z,24.73
2018-07-11T07:26:43.888Z,23.63
2018-07-11T07:29:12.288Z,24.70
2018-07-11T07:31:40.746Z,24.37
2018-07-11T07:34:09.111Z,24.47
2018-07-11T07:36:37.594Z,24.37
2018-07-11T07:39:06.307Z,23.50
2018-07-11T07:41:34.633Z,23.43
2018-07-11T07:44:03.350Z,24.00
2018-07-11T07:46:31.767Z,23.57
2018-07-11T07:49:00.089Z,22.93
2018-07-11T07:51:28.441Z,24.13
2018-07-11T07:53:56.926Z,22.83
2018-07-11T07:56:25.291Z,22.97
2018-07-11T07:58:53.659Z,23.23
2018-07-11T08:01:21.980Z,23.10
2018-07-11T08:03:50.332Z,22.43
2018-07-11T08:06:18.661Z,22.63
2018-07-11T08:08:46.999Z,22.50
2018-07-11T08:11:15.612Z,21.37
2018-07-11T08:13:43.956Z,21.13
2018-07-11T08:16:12.356Z,21.73
2018-07-11T08:18:40.943Z,20.87
2018-07-11T08:21:09.340Z,21.47
2018-07-11T08:23:49.057Z,21.33
2018-07-11T08:26:28.930Z,21.63
2018-07-11T08:29:09.875Z,23.03
2018-07-11T08:31:50.486Z,21.17
2018-07-11T08:34:31.713Z,21.73
2018-07-11T08:37:20.724Z,20.97
2018-07-11T08:42:03.385Z,21.23
2018-07-11T08:44:49.637Z,20.73
2018-07-11T08:49:11.594Z,22.03
2018-07-11T08:51:51.661Z,20.47
2018-07-11T08:54:31.669Z,20.97
2018-07-11T08:58:09.491Z,20.10
2018-07-11T09:01:02.677Z,20.30
2018-07-11T09:05:48.593Z,19.80
2018-07-11T09:10:28.431Z,18.73
2018-07-11T09:13:03.786Z,18.30
2018-07-11T09:17:51.183Z,19.10
2018-07-11T09:20:41.277Z,18.00
2018-07-11T09:23:26.515Z,18.93
2018-07-11T09:25:54.954Z,17.23
2018-07-11T09:28:23.477Z,17.43
2018-07-11T09:30:51.819Z,16.17
2018-07-11T09:33:20.226Z,13.70
2018-07-11T09:35:48.528Z,14.20
2018-07-11T09:38:16.918Z,16.13
2018-07-11T09:40:45.254Z,16.77
2018-07-11T09:43:13.683Z,11.50
2018-07-11T09:45:42.143Z,13.30
2018-07-11T09:48:10.484Z,13.00
2018-07-11T09:50:39.047Z,16.00
2018-07-11T09:53:07.469Z,16.40
2018-07-11T09:55:35.830Z,15.17
2018-07-11T09:58:05.267Z,14.63
2018-07-11T10:00:39.027Z,15.73
2018-07-11T10:03:07.475Z,14.50
2018-07-11T10:05:35.828Z,12.17
2018-07-11T10:08:06.903Z,12.73
2018-07-11T10:10:35.286Z,10.70
2018-07-11T10:13:03.731Z,10.13
2018-07-11T10:15:32.147Z,10.30
2018-07-11T10:18:00.531Z,9.70
2018-07-11T10:20:29.000Z,8.27
2018-07-11T10:22:57.281Z,8.67
2018-07-11T10:25:25.604Z,7.63
2018-07-11T10:28:05.316Z,7.63
2018-07-11T10:30:33.724Z,6.20
2018-07-11T10:33:02.205Z,6.37
2018-07-11T10:35:30.605Z,7.30
2018-07-11T10:37:58.916Z,7.97
2018-07-11T10:40:27.234Z,7.40
2018-07-11T10:42:55.591Z,7.07
2018-07-11T10:45:23.997Z,7.50
2018-07-11T10:47:52.415Z,7.30
2018-07-11T10:50:20.834Z,7.20
2018-07-11T10:52:49.207Z,7.00
2018-07-11T10:55:17.632Z,6.87
2018-07-11T10:57:46.157Z,6.30
2018-07-11T11:00:35.967Z,5.90
2018-07-11T11:02:44.452Z,5.67
2018-07-11T11:05:12.748Z,6.07
2018-07-11T11:07:41.094Z,6.10
2018-07-11T11:10:09.414Z,5.97
2018-07-11T11:12:37.734Z,5.90
2018-07-11T11:15:06.224Z,5.80
2018-07-11T11:17:34.544Z,5.47
2018-07-11T11:20:02.998Z,5.37
2018-07-11T11:22:31.793Z,4.57
2018-07-11T11:25:00.713Z,4.37
2018-07-11T11:27:29.410Z,4.73
2018-07-11T11:29:57.811Z,4.20
2018-07-11T11:32:26.172Z,3.80
2018-07-11T11:34:54.557Z,4.07
2018-07-11T11:37:22.932Z,3.90
2018-07-11T11:39:51.492Z,4.10
2018-07-11T11:42:20.199Z,4.50
2018-07-11T11:44:48.579Z,6.07
2018-07-11T11:47:20.291Z,6.50
2018-07-11T11:49:48.599Z,6.50
2018-07-11T11:52:16.976Z,6.73
2018-07-11T11:54:45.328Z,6.43
2018-07-11T11:57:13.631Z,5.87
2018-07-11T11:59:41.991Z,5.33
2018-07-11T12:02:10.270Z,5.40
2018-07-11T12:04:38.554Z,5.37
2018-07-11T12:07:06.956Z,5.60
2018-07-11T12:09:35.667Z,6.23
2018-07-11T12:12:04.391Z,6.07
2018-07-11T12:14:34.762Z,5.07
2018-07-11T12:17:03.077Z,4.47
2018-07-11T12:19:31.371Z,5.83
2018-07-11T12:21:59.715Z,5.10
2018-07-11T12:24:28.067Z,4.00
2018-07-11T12:26:56.370Z,4.60
2018-07-11T12:29:24.693Z,4.33
2018-07-11T12:31:53.011Z,4.40
2018-07-11T12:34:21.446Z,4.10
2018-07-11T12:36:49.871Z,4.03
2018-07-11T12:39:19.131Z,4.33
2018-07-11T12:41:47.511Z,5.00
2018-07-11T12:44:15.812Z,4.90
2018-07-11T12:46:44.702Z,5.00
2018-07-11T12:49:13.349Z,4.67
2018-07-11T12:51:41.710Z,5.70
2018-07-11T12:54:10.006Z,5.30
2018-07-11T12:56:38.677Z,5.70
2018-07-11T12:59:07.070Z,5.60
2018-07-11T13:01:35.417Z,5.33
2018-07-11T13:04:03.790Z,5.93
2018-07-11T13:06:32.108Z,6.07
2018-07-11T13:09:00.394Z,7.10
2018-07-11T13:11:28.743Z,6.70
2018-07-11T13:13:57.014Z,6.70
2018-07-11T13:16:25.359Z,7.10
2018-07-11T13:18:53.634Z,6.10
2018-07-11T13:21:21.974Z,7.23
2018-07-11T13:23:50.268Z,6.53
2018-07-11T13:26:18.624Z,7.37
2018-07-11T13:28:46.923Z,6.90
2018-07-11T13:31:15.418Z,6.60
2018-07-11T13:33:43.967Z,6.33
2018-07-11T13:36:12.318Z,7.10
2018-07-11T13:38:40.622Z,6.20
2018-07-11T13:41:09.004Z,6.60
2018-07-11T13:43:37.450Z,7.40
2018-07-11T13:46:05.722Z,6.73
2018-07-11T13:48:34.040Z,6.30
2018-07-11T13:51:02.332Z,6.17
2018-07-11T13:53:32.384Z,5.40
2018-07-11T13:56:00.676Z,6.00
2018-07-11T13:58:29.132Z,6.10
2018-07-11T14:00:57.511Z,6.20
2018-07-11T14:03:25.844Z,5.97
2018-07-11T14:05:57.508Z,5.83
2018-07-11T14:08:27.216Z,4.97
2018-07-11T14:10:56.422Z,4.50
2018-07-11T14:13:31.440Z,3.90
2018-07-11T14:15:59.894Z,4.00
2018-07-11T14:18:28.373Z,3.53
2018-07-11T14:20:56.999Z,4.20
2018-07-11T14:23:36.810Z,4.60
2018-07-11T14:26:05.312Z,4.87
2018-07-11T14:28:34.160Z,4.10
2018-07-11T14:31:04.295Z,4.07
2018-07-11T14:33:33.422Z,3.90
2018-07-11T14:36:04.066Z,3.73
2018-07-11T14:38:32.790Z,4.17
2018-07-11T14:41:02.333Z,4.03
2018-07-11T14:43:30.827Z,4.10
2018-07-11T14:45:59.135Z,4.17
2018-07-11T14:48:30.203Z,4.00
2018-07-11T14:50:59.918Z,4.30
2018-07-11T14:53:28.322Z,4.97
2018-07-11T14:55:56.656Z,4.80
2018-07-11T14:58:25.302Z,5.70
2018-07-11T15:00:53.648Z,5.30
2018-07-11T15:03:21.966Z,6.10
2018-07-11T15:05:50.258Z,6.30
2018-07-11T15:08:18.885Z,6.00
2018-07-11T15:10:47.221Z,6.20
2018-07-11T15:13:15.562Z,7.37
2018-07-11T15:15:43.916Z,13.23
2018-07-11T15:18:12.283Z,9.80
2018-07-11T15:20:40.867Z,11.57
2018-07-11T15:23:09.208Z,16.20
2018-07-11T15:25:37.681Z,9.47
2018-07-11T15:28:06.362Z,10.10
2018-07-11T15:30:34.690Z,15.27
2018-07-11T15:33:03.087Z,17.03
2018-07-11T15:35:31.500Z,10.40
2018-07-11T15:38:00.449Z,10.73
2018-07-11T15:40:29.470Z,10.13
2018-07-11T15:42:57.848Z,9.90
2018-07-11T15:45:26.334Z,9.53
2018-07-11T15:47:54.738Z,9.97
2018-07-11T15:50:23.141Z,9.03
2018-07-11T15:52:51.510Z,8.83
2018-07-11T15:55:20.226Z,9.07
2018-07-11T15:57:50.923Z,8.60
2018-07-11T16:00:20.194Z,8.40
2018-07-11T16:02:49.566Z,9.17
2018-07-11T16:05:23.284Z,7.60
2018-07-11T16:07:53.555Z,8.90
2018-07-11T16:10:28.835Z,7.50
2018-07-11T16:12:57.262Z,7.70
2018-07-11T16:15:25.639Z,7.63
2018-07-11T16:17:54.031Z,7.70
2018-07-11T16:20:22.666Z,7.27
2018-07-11T16:22:51.127Z,7.53
2018-07-11T16:25:19.620Z,7.87
2018-07-11T16:27:48.512Z,7.80
2018-07-11T16:30:16.910Z,8.33
2018-07-11T16:32:45.324Z,7.47
2018-07-11T16:35:13.712Z,8.13
2018-07-11T16:37:42.279Z,8.37
2018-07-11T16:40:10.819Z,7.80
2018-07-11T16:42:39.164Z,6.77
2018-07-11T16:45:07.530Z,6.67
2018-07-11T16:47:36.428Z,6.13
2018-07-11T16:50:05.848Z,5.70
2018-07-11T16:52:34.436Z,6.20
2018-07-11T16:55:02.946Z,6.53
2018-07-11T16:57:38.974Z,6.63
2018-07-11T17:00:09.109Z,6.80
2018-07-11T17:02:38.706Z,6.60
2018-07-11T17:05:08.915Z,6.27
2018-07-11T17:07:58.203Z,6.30
2018-07-11T17:10:28.159Z,7.00
2018-07-11T17:13:27.594Z,6.33
2018-07-11T17:15:56.318Z,6.30
2018-07-11T17:18:32.292Z,6.67
2018-07-11T17:21:05.728Z,5.77
2018-07-11T17:23:34.658Z,6.10
2018-07-11T17:26:03.397Z,6.43
2018-07-11T17:28:31.687Z,5.90
2018-07-11T17:31:00.796Z,5.17
2018-07-11T17:33:29.450Z,5.63
2018-07-11T17:35:58.012Z,5.83
2018-07-11T17:38:29.499Z,5.53
2018-07-11T17:40:58.070Z,6.20
2018-07-11T17:43:34.845Z,6.90
2018-07-11T17:46:03.735Z,6.77
2018-07-11T17:48:41.103Z,7.43
2018-07-11T17:51:18.300Z,9.40
2018-07-11T17:53:53.812Z,10.20
2018-07-11T17:56:22.249Z,9.80
2018-07-11T17:58:56.082Z,9.63
2018-07-11T18:01:33.461Z,9.03
2018-07-11T18:04:41.636Z,8.70
2018-07-11T18:07:15.712Z,8.90
2018-07-11T18:09:54.434Z,8.80
2018-07-11T18:12:25.195Z,9.03
2018-07-11T18:15:00.902Z,9.03
2018-07-11T18:18:34.548Z,8.43
2018-07-11T18:21:41.830Z,9.37
2018-07-11T18:24:18.568Z,9.20
2018-07-11T18:27:00.148Z,9.50
2018-07-11T18:30:38.418Z,8.63
2018-07-11T18:33:26.428Z,7.90
2018-07-11T18:37:01.918Z,8.47
2018-07-11T18:39:39.011Z,7.03
2018-07-11T18:42:14.715Z,6.97
2018-07-11T18:45:58.796Z,10.53
2018-07-11T18:48:36.790Z,8.33
2018-07-11T18:51:13.325Z,8.50
2018-07-11T18:53:52.298Z,8.20
2018-07-11T18:56:35.710Z,8.47
2018-07-11T18:59:10.954Z,8.67
2018-07-11T19:01:55.154Z,8.70
2018-07-11T19:04:29.732Z,8.90
2018-07-11T19:07:12.953Z,9.07
2018-07-11T19:09:57.670Z,9.10
2018-07-11T19:12:31.922Z,9.23
2018-07-11T19:15:09.879Z,9.40
2018-07-11T19:17:47.113Z,10.80
2018-07-11T19:20:37.423Z,15.90
2018-07-11T19:24:22.855Z,10.43
2018-07-11T19:26:56.683Z,9.30
2018-07-11T19:29:32.268Z,9.00
2018-07-11T19:32:09.565Z,8.77
2018-07-11T19:34:50.339Z,9.20
2018-07-11T19:37:27.972Z,9.70
2018-07-11T19:40:07.691Z,9.83
2018-07-11T19:43:54.101Z,9.30
2018-07-11T19:46:35.190Z,9.90
2018-07-11T19:49:17.565Z,9.63
2018-07-11T19:52:02.662Z,9.00
2018-07-11T19:54:41.174Z,9.97
2018-07-11T19:57:09.574Z,9.10
2018-07-11T19:59:38.048Z,8.27
2018-07-11T20:02:06.523Z,8.07
2018-07-11T20:04:36.216Z,8.17
2018-07-11T20:07:06.168Z,8.03
2018-07-11T20:09:40.279Z,8.00
2018-07-11T20:12:08.633Z,8.57
2018-07-11T20:14:41.780Z,9.13
2018-07-11T20:17:10.262Z,11.20
2018-07-11T20:19:38.561Z,11.33
2018-07-11T20:22:06.954Z,10.80
2018-07-11T20:24:35.255Z,9.77
2018-07-11T20:27:05.154Z,9.00
2018-07-11T20:29:34.353Z,8.80
2018-07-11T20:32:05.806Z,9.10
2018-07-11T20:34:34.348Z,9.93
2018-07-11T20:37:03.999Z,9.57
2018-07-11T20:39:34.488Z,9.70
2018-07-11T20:42:02.851Z,26.77
2018-07-11T20:44:31.299Z,13.33
2018-07-11T20:46:59.695Z,10.10
2018-07-11T20:49:35.035Z,10.67
2018-07-11T20:52:04.915Z,10.40
2018-07-11T20:54:33.294Z,10.97
2018-07-11T20:57:01.631Z,11.40
2018-07-11T21:00:44.027Z,10.73
2018-07-11T21:03:21.531Z,10.70
2018-07-11T21:05:59.535Z,12.37
2018-07-11T21:08:39.710Z,18.53
2018-07-11T21:11:18.983Z,14.90
2018-07-11T21:16:03.218Z,11.57
2018-07-11T21:18:43.570Z,12.17
2018-07-11T21:21:12.027Z,12.50
2018-07-11T21:23:40.411Z,10.10
2018-07-11T21:26:08.696Z,11.10
2018-07-11T21:28:37.068Z,12.13
2018-07-11T21:31:05.366Z,13.23
2018-07-11T21:33:33.718Z,13.50
2018-07-11T21:36:02.014Z,15.97
2018-07-11T21:38:30.452Z,16.37
2018-07-11T21:40:58.716Z,16.83
2018-07-11T21:43:27.135Z,16.10
2018-07-11T21:45:55.810Z,19.00
2018-07-11T21:48:24.135Z,20.20
2018-07-11T21:50:52.514Z,18.73
2018-07-11T21:53:20.831Z,19.70
2018-07-11T21:55:49.115Z,18.87
2018-07-11T21:58:18.119Z,15.33
2018-07-11T22:00:46.384Z,15.90
2018-07-11T22:03:14.690Z,16.80
2018-07-11T22:05:42.988Z,16.60
2018-07-11T22:08:11.351Z,17.23
2018-07-11T22:10:40.416Z,16.47
2018-07-11T22:13:09.304Z,17.27
2018-07-11T22:15:37.616Z,16.53
2018-07-11T22:18:17.456Z,17.33
2018-07-11T22:20:44.650Z,20.83
2018-07-11T22:23:11.886Z,20.57
2018-07-11T22:25:39.087Z,21.23
2018-07-11T22:28:06.374Z,19.63
2018-07-11T22:30:33.571Z,20.97
2018-07-11T22:33:00.847Z,20.53
2018-07-11T22:35:28.931Z,21.73
2018-07-11T22:37:56.214Z,21.43
2018-07-11T22:40:23.418Z,23.50
2018-07-11T22:42:50.659Z,23.33
2018-07-11T22:45:17.923Z,23.70
2018-07-11T22:47:45.141Z,23.90
2018-07-11T22:50:12.654Z,26.23
2018-07-11T22:52:39.888Z,26.07
2018-07-11T22:55:07.122Z,26.17
2018-07-11T22:57:34.314Z,25.10
2018-07-11T23:00:01.540Z,23.73
2018-07-11T23:02:28.881Z,22.97
2018-07-11T23:04:56.111Z,20.80
2018-07-11T23:07:23.315Z,22.10
2018-07-11T23:09:50.549Z,22.27
2018-07-11T23:12:17.736Z,22.83
2018-07-11T23:14:44.967Z,23.33
2018-07-11T23:17:12.176Z,21.33
2018-07-11T23:19:39.407Z,23.07
2018-07-11T23:22:06.609Z,22.70
2018-07-11T23:24:33.843Z,25.17
2018-07-11T23:27:01.068Z,24.63
2018-07-11T23:29:28.302Z,24.90
2018-07-11T23:31:55.494Z,24.70
2018-07-11T23:34:22.728Z,25.77
2018-07-11T23:36:49.914Z,25.03
2018-07-11T23:39:17.139Z,25.77
2018-07-11T23:41:44.335Z,24.43
2018-07-11T23:44:11.579Z,24.20
2018-07-11T23:46:38.776Z,24.60
2018-07-11T23:49:06.033Z,24.20
2018-07-11T23:51:33.262Z,24.90
2018-07-11T23:54:00.510Z,27.07
2018-07-11T23:56:27.770Z,25.23
2018-07-11T23:58:54.966Z,25.13
